Time;durP1;ratioP1;P1;durP2;ratioP2;P2;SDS_P1;SDS_P2;PMS_P1;PMS_P2;Temp;Humidity;BMP_temperature;BMP_pressure;BME280_temperature;BME280_humidity;BME280_pressure;Samples;Min_cycle;Max_cycle;Signal;HPM_P1;HPM_P2
2022/09/15 05:00:42;;;;;;;2.40;1.43;;;18.50;97.20;;;;;;1682472;29;20243;-72
2022/09/15 05:01:34;;;;;;;1.20;1.10;;;18.50;97.20;;;;;;1674109;29;20202;-74
2022/09/15 05:02:26;;;;;;;1.70;1.27;;;18.50;97.20;;;;;;1668888;29;20202;-71
2022/09/15 05:03:17;;;;;;;1.42;1.10;;;18.50;97.20;;;;;;1663391;29;20715;-72
2022/09/15 05:04:09;;;;;;;1.63;1.17;;;18.50;97.20;;;;;;1666950;29;20670;-72
2022/09/15 05:05:00;;;;;;;2.47;1.38;;;18.50;97.20;;;;;;1669471;29;20239;-72
2022/09/15 05:05:52;;;;;;;2.75;1.50;;;18.50;97.20;;;;;;1669166;29;20230;-72
2022/09/15 05:06:43;;;;;;;1.40;1.27;;;18.50;97.20;;;;;;1669249;29;20222;-72
2022/09/15 05:07:35;;;;;;;2.67;1.20;;;18.50;97.20;;;;;;1669130;29;20203;-72
2022/09/15 05:08:25;;;;;;;1.35;1.20;;;18.50;97.20;;;;;;1669327;29;20686;-72
2022/09/15 05:09:17;;;;;;;1.63;1.27;;;18.50;97.20;;;;;;1669424;29;20564;-71
2022/09/15 05:10:08;;;;;;;4.90;1.20;;;18.50;97.20;;;;;;1669602;29;20221;-72
2022/09/15 05:11:01;;;;;;;2.78;1.88;;;18.50;97.20;;;;;;1669470;29;20718;-72
2022/09/15 05:11:52;;;;;;;3.08;1.30;;;18.50;97.20;;;;;;1669596;29;20225;-72
2022/09/15 05:12:43;;;;;;;11.60;1.70;;;18.50;97.20;;;;;;1669546;29;20211;-71
2022/09/15 05:13:35;;;;;;;1.60;1.30;;;18.50;97.20;;;;;;1669495;29;20567;-73
2022/09/15 05:14:27;;;;;;;1.80;1.30;;;18.50;97.20;;;;;;1669390;29;20210;-75
2022/09/15 05:15:18;;;;;;;1.30;1.00;;;18.50;97.20;;;;;;1669529;29;20203;-75
2022/09/15 05:16:13;;;;;;;1.53;1.43;;;18.50;97.20;;;;;;1669589;29;20199;-74
2022/09/15 05:17:04;;;;;;;1.42;1.10;;;18.50;97.20;;;;;;1669527;29;20455;-75
2022/09/15 05:17:55;;;;;;;1.53;1.00;;;18.50;97.20;;;;;;1668894;29;20207;-76
2022/09/15 05:18:48;;;;;;;1.80;1.33;;;18.50;97.20;;;;;;1669451;29;20462;-73
2022/09/15 05:19:40;;;;;;;1.40;1.30;;;18.50;97.20;;;;;;1669464;29;20241;-73
2022/09/15 05:20:31;;;;;;;1.55;1.23;;;18.50;97.20;;;;;;1669542;29;20241;-73
2022/09/15 05:21:23;;;;;;;2.80;1.40;;;18.50;97.20;;;;;;1669473;29;20216;-74
2022/09/15 05:22:14;;;;;;;1.65;1.30;;;18.50;97.20;;;;;;1669491;29;20727;-74
2022/09/15 05:23:05;;;;;;;1.30;1.20;;;18.50;97.20;;;;;;1669523;29;20217;-73
2022/09/15 05:23:57;;;;;;;1.30;1.07;;;18.50;97.20;;;;;;1669516;29;20213;-73
2022/09/15 05:24:47;;;;;;;3.55;1.30;;;18.50;97.20;;;;;;1669148;29;20215;-74
2022/09/15 05:25:39;;;;;;;2.03;1.60;;;18.50;97.20;;;;;;1669372;29;20199;-72
2022/09/15 05:26:30;;;;;;;1.80;1.30;;;18.50;97.20;;;;;;1669432;29;20203;-73
2022/09/15 05:27:22;;;;;;;1.37;1.27;;;18.50;97.20;;;;;;1669170;29;20238;-73
2022/09/15 05:28:13;;;;;;;2.33;1.42;;;18.50;97.20;;;;;;1669485;29;20211;-73
2022/09/15 05:29:04;;;;;;;5.30;1.50;;;18.50;97.20;;;;;;1669406;29;20294;-72
2022/09/15 05:29:55;;;;;;;4.05;1.65;;;18.50;97.20;;;;;;1669451;29;20218;-73
2022/09/15 05:30:47;;;;;;;1.53;1.33;;;18.50;97.20;;;;;;1668902;29;20224;-73
2022/09/15 05:31:39;;;;;;;1.30;1.20;;;18.50;97.20;;;;;;1669446;29;20331;-76
2022/09/15 05:32:31;;;;;;;1.52;1.40;;;18.50;97.20;;;;;;1669553;29;20218;-75
2022/09/15 05:33:22;;;;;;;1.58;1.30;;;18.50;97.20;;;;;;1669410;29;20230;-74
2022/09/15 05:34:14;;;;;;;1.80;1.05;;;18.50;97.20;;;;;;1669492;29;20211;-75
2022/09/15 05:35:05;;;;;;;1.63;1.23;;;18.50;97.20;;;;;;1669515;29;20218;-75
2022/09/15 05:35:59;;;;;;;3.22;1.30;;;18.50;97.20;;;;;;1669070;29;20195;-75
2022/09/15 05:36:50;;;;;;;2.47;1.25;;;18.50;97.20;;;;;;1669492;29;20249;-74
2022/09/15 05:37:42;;;;;;;2.43;1.30;;;18.50;97.20;;;;;;1668912;29;20211;-74
2022/09/15 05:38:33;;;;;;;1.70;1.33;;;18.50;97.20;;;;;;1669170;29;20269;-75
2022/09/15 05:39:24;;;;;;;1.77;1.20;;;18.50;97.20;;;;;;1669244;29;20202;-75
2022/09/15 05:40:15;;;;;;;2.03;1.55;;;18.50;97.20;;;;;;1669321;29;20207;-74
2022/09/15 05:41:09;;;;;;;2.95;1.20;;;18.50;97.20;;;;;;1667612;29;20659;-75
2022/09/15 05:42:00;;;;;;;2.28;1.10;;;18.50;97.20;;;;;;1667494;29;20213;-76
2022/09/15 05:42:52;;;;;;;1.93;1.37;;;18.50;97.20;;;;;;1668992;29;20213;-75
2022/09/15 05:43:43;;;;;;;3.47;1.75;;;18.50;97.20;;;;;;1669155;29;20648;-75
2022/09/15 05:44:35;;;;;;;3.13;1.20;;;18.50;97.20;;;;;;1669392;29;20270;-76
2022/09/15 05:45:26;;;;;;;1.50;1.40;;;18.50;97.20;;;;;;1669331;29;20485;-77
2022/09/15 05:46:19;;;;;;;1.75;1.23;;;18.50;97.20;;;;;;1669346;29;20241;-75
2022/09/15 05:47:11;;;;;;;2.17;1.30;;;18.50;97.20;;;;;;1669033;29;20199;-75
2022/09/15 05:48:03;;;;;;;1.85;1.02;;;18.50;97.20;;;;;;1669300;29;20243;-75
2022/09/15 05:48:56;;;;;;;2.70;1.20;;;18.50;97.20;;;;;;1669356;29;20571;-74
2022/09/15 05:49:47;;;;;;;1.83;1.30;;;18.50;97.20;;;;;;1668892;29;20203;-76
2022/09/15 05:50:47;;;;;;;1.25;1.10;;;18.50;97.20;;;;;;1669091;29;20752;-75
2022/09/15 05:51:38;;;;;;;1.20;1.10;;;18.50;97.20;;;;;;1668926;29;20203;-75
2022/09/15 05:52:29;;;;;;;2.08;1.15;;;18.50;97.20;;;;;;1669339;29;20235;-75
2022/09/15 05:53:21;;;;;;;1.13;1.03;;;18.50;97.20;;;;;;1669269;29;20206;-75
2022/09/15 05:54:12;;;;;;;1.30;1.20;;;18.50;97.20;;;;;;1669361;29;20222;-72
2022/09/15 05:55:04;;;;;;;2.17;1.20;;;18.50;97.20;;;;;;1669290;29;20226;-73
2022/09/15 05:55:56;;;;;;;2.00;1.27;;;18.50;97.20;;;;;;1669362;29;20666;-73
2022/09/15 05:56:48;;;;;;;2.25;1.65;;;18.50;97.20;;;;;;1669206;29;20209;-74
2022/09/15 05:57:38;;;;;;;3.28;1.10;;;18.50;97.20;;;;;;1669082;29;20237;-74
2022/09/15 05:58:30;;;;;;;1.47;1.30;;;18.50;97.20;;;;;;1669177;29;20241;-73
2022/09/15 05:59:21;;;;;;;2.30;1.52;;;18.50;97.20;;;;;;1669277;29;20671;-73
2022/09/15 06:00:14;;;;;;;2.70;1.30;;;18.60;97.20;;;;;;1669214;29;20254;-73
2022/09/15 06:01:06;;;;;;;3.00;1.30;;;18.50;97.20;;;;;;1669302;29;20221;-73
2022/09/15 06:01:58;;;;;;;2.33;1.20;;;18.60;97.20;;;;;;1673649;29;20256;-71
2022/09/15 06:02:50;;;;;;;1.20;1.10;;;18.60;97.20;;;;;;1675598;29;20678;-74
2022/09/15 06:03:42;;;;;;;1.90;1.45;;;18.60;97.20;;;;;;1675455;29;20209;-73
2022/09/15 06:04:33;;;;;;;1.35;1.10;;;18.60;97.20;;;;;;1675603;29;20226;-72
2022/09/15 06:05:24;;;;;;;1.50;1.10;;;18.60;97.20;;;;;;1675617;29;20289;-72
2022/09/15 06:06:16;;;;;;;1.92;1.40;;;18.60;97.20;;;;;;1675668;29;21004;-72
2022/09/15 06:07:07;;;;;;;1.83;1.10;;;18.70;97.20;;;;;;1675571;29;20571;-72
2022/09/15 06:07:58;;;;;;;2.90;1.27;;;18.70;97.20;;;;;;1675311;29;20217;-72
2022/09/15 06:08:54;;;;;;;2.87;1.17;;;18.70;97.20;;;;;;1675544;29;20208;-74
2022/09/15 06:09:45;;;;;;;2.17;1.00;;;18.60;97.20;;;;;;1675595;29;20859;-73
2022/09/15 06:10:37;;;;;;;2.10;1.10;;;18.70;97.20;;;;;;1675489;29;20619;-73
2022/09/15 06:11:29;;;;;;;4.75;1.33;;;18.70;97.20;;;;;;1675545;29;20865;-73
2022/09/15 06:12:21;;;;;;;1.90;1.08;;;18.70;97.20;;;;;;1675543;29;20201;-72
2022/09/15 06:13:12;;;;;;;2.15;1.17;;;18.70;97.20;;;;;;1675585;29;20206;-72
2022/09/15 06:14:05;;;;;;;2.65;1.10;;;18.70;97.20;;;;;;1675565;29;20218;-72
2022/09/15 06:14:56;;;;;;;1.63;1.00;;;18.70;97.20;;;;;;1675176;29;20214;-72
2022/09/15 06:15:48;;;;;;;2.03;1.03;;;18.70;97.20;;;;;;1675557;29;20266;-72
2022/09/15 06:16:39;;;;;;;1.10;1.00;;;18.60;97.20;;;;;;1675477;29;20584;-72
2022/09/15 06:17:31;;;;;;;2.92;1.30;;;18.60;97.20;;;;;;1674870;29;20202;-72
2022/09/15 06:18:23;;;;;;;2.10;1.00;;;18.60;97.20;;;;;;1675007;29;20281;-73
2022/09/15 06:19:15;;;;;;;1.25;0.95;;;18.60;97.20;;;;;;1675544;29;20217;-72
2022/09/15 06:20:07;;;;;;;2.10;1.00;;;18.60;97.20;;;;;;1675497;29;20210;-72
2022/09/15 06:21:02;;;;;;;1.80;1.00;;;18.60;97.20;;;;;;1675410;29;20225;-73
2022/09/15 06:21:54;;;;;;;3.05;1.25;;;18.60;97.20;;;;;;1675507;29;20214;-74
2022/09/15 06:22:45;;;;;;;1.65;1.00;;;18.60;97.20;;;;;;1675562;29;20209;-71
2022/09/15 06:23:37;;;;;;;2.80;1.20;;;18.60;97.20;;;;;;1675508;29;20212;-72
2022/09/15 06:24:28;;;;;;;3.17;1.13;;;18.60;97.20;;;;;;1675442;29;20458;-72
2022/09/15 06:25:20;;;;;;;2.03;1.17;;;18.60;97.20;;;;;;1675488;29;20254;-72
2022/09/15 06:26:12;;;;;;;1.58;1.20;;;18.60;97.20;;;;;;1675556;29;20234;-73
2022/09/15 06:27:04;;;;;;;1.40;1.15;;;18.60;97.20;;;;;;1675376;29;20321;-72
2022/09/15 06:27:55;;;;;;;1.50;1.10;;;18.60;97.20;;;;;;1675105;29;20245;-72
2022/09/15 06:28:49;;;;;;;1.47;1.37;;;18.60;97.20;;;;;;1675125;29;20206;-73
2022/09/15 06:29:40;;;;;;;1.55;1.05;;;18.60;97.20;;;;;;1674903;29;20213;-72
2022/09/15 06:30:31;;;;;;;1.87;1.00;;;18.60;97.20;;;;;;1675172;29;20221;-72
2022/09/15 06:31:23;;;;;;;1.83;1.17;;;18.60;97.20;;;;;;1675405;29;20201;-72
2022/09/15 06:32:14;;;;;;;1.85;1.10;;;18.60;97.20;;;;;;1675456;29;20209;-73
2022/09/15 06:33:05;;;;;;;3.58;1.25;;;18.60;97.20;;;;;;1675430;29;20210;-71
2022/09/15 06:33:59;;;;;;;1.77;1.20;;;18.60;97.20;;;;;;1675423;29;20202;-72
2022/09/15 06:34:50;;;;;;;4.30;0.90;;;18.60;97.20;;;;;;1675507;29;20831;-73
2022/09/15 06:35:41;;;;;;;1.67;1.00;;;18.60;97.20;;;;;;1675334;29;20558;-72
2022/09/15 06:36:32;;;;;;;1.75;1.10;;;18.60;97.20;;;;;;1675453;29;20201;-73
2022/09/15 06:37:24;;;;;;;1.43;1.33;;;18.60;97.20;;;;;;1675006;29;20210;-72
2022/09/15 06:38:15;;;;;;;3.65;1.20;;;18.60;97.20;;;;;;1675305;29;20652;-72
2022/09/15 06:39:07;;;;;;;2.10;1.13;;;18.60;97.20;;;;;;1675273;29;20215;-72
2022/09/15 06:39:58;;;;;;;1.17;1.08;;;18.60;97.20;;;;;;1675389;29;20599;-73
2022/09/15 06:40:55;;;;;;;1.80;1.53;;;18.60;97.20;;;;;;1675302;29;20660;-71
2022/09/15 06:41:48;;;;;;;2.85;1.25;;;18.60;97.20;;;;;;1675304;29;20213;-71
2022/09/15 06:42:39;;;;;;;2.08;0.95;;;18.60;97.20;;;;;;1675014;29;20209;-71
2022/09/15 06:43:31;;;;;;;1.30;0.97;;;18.60;97.20;;;;;;1675384;29;20210;-71
2022/09/15 06:44:22;;;;;;;1.40;1.20;;;18.60;97.20;;;;;;1675323;29;20211;-73
2022/09/15 06:45:14;;;;;;;1.03;0.90;;;18.60;97.20;;;;;;1675340;29;20210;-71
2022/09/15 06:46:07;;;;;;;1.63;1.23;;;18.60;97.20;;;;;;1675296;29;20217;-72
2022/09/15 06:46:59;;;;;;;1.60;1.10;;;18.70;97.20;;;;;;1675198;29;20213;-73
2022/09/15 06:47:50;;;;;;;2.75;1.25;;;18.70;97.20;;;;;;1675115;29;20217;-72
2022/09/15 06:48:43;;;;;;;2.15;1.60;;;18.70;97.20;;;;;;1675390;29;20280;-72
2022/09/15 06:49:35;;;;;;;2.25;1.00;;;18.70;97.20;;;;;;1675263;29;20239;-72
2022/09/15 06:50:26;;;;;;;4.95;1.25;;;18.70;97.20;;;;;;1675166;29;20206;-71
2022/09/15 06:51:19;;;;;;;1.90;1.05;;;18.70;97.20;;;;;;1675365;29;20602;-72
2022/09/15 06:52:11;;;;;;;1.02;0.90;;;18.80;97.20;;;;;;1675262;29;20206;-72
2022/09/15 06:53:01;;;;;;;1.55;1.10;;;18.80;97.20;;;;;;1675270;29;20233;-72
2022/09/15 06:53:53;;;;;;;2.23;0.90;;;18.80;97.20;;;;;;1675346;29;20209;-72
2022/09/15 06:54:44;;;;;;;2.63;1.13;;;18.80;97.20;;;;;;1675182;29;20277;-74
2022/09/15 06:55:36;;;;;;;1.67;1.00;;;18.80;97.20;;;;;;1675265;29;20210;-72
2022/09/15 06:56:28;;;;;;;2.28;1.00;;;18.80;97.20;;;;;;1674935;29;20206;-72
2022/09/15 06:57:19;;;;;;;1.42;1.20;;;18.80;97.20;;;;;;1674977;29;20677;-72
2022/09/15 06:58:10;;;;;;;1.63;1.10;;;18.80;97.20;;;;;;1675296;29;20210;-71
2022/09/15 06:59:02;;;;;;;2.50;1.10;;;18.80;97.20;;;;;;1675167;29;20230;-72
2022/09/15 06:59:53;;;;;;;1.23;1.00;;;18.80;97.20;;;;;;1675259;29;20218;-72
2022/09/15 07:00:45;;;;;;;1.50;1.10;;;18.80;97.20;;;;;;1675039;29;20232;-71
2022/09/15 07:01:36;;;;;;;1.98;1.20;;;18.90;97.20;;;;;;1674385;29;20213;-74
2022/09/15 07:02:28;;;;;;;1.30;0.82;;;18.90;97.20;;;;;;1674719;29;20201;-72
2022/09/15 07:03:21;;;;;;;3.28;1.27;;;18.90;97.20;;;;;;1675252;29;20225;-71
2022/09/15 07:04:13;;;;;;;1.52;1.00;;;18.80;97.20;;;;;;1674667;29;20747;-72
2022/09/15 07:05:06;;;;;;;1.08;0.90;;;18.80;97.20;;;;;;1675136;29;20210;-72
2022/09/15 07:05:58;;;;;;;1.38;0.90;;;18.80;97.20;;;;;;1675170;29;20273;-72
2022/09/15 07:06:49;;;;;;;1.20;1.10;;;18.80;97.20;;;;;;1675063;29;20213;-74
2022/09/15 07:07:41;;;;;;;1.17;0.90;;;18.80;97.20;;;;;;1674935;29;20206;-72
2022/09/15 07:08:32;;;;;;;1.55;0.85;;;18.80;97.20;;;;;;1675160;29;20211;-72
2022/09/15 07:09:24;;;;;;;1.63;0.80;;;18.80;97.20;;;;;;1675215;29;20696;-72
2022/09/15 07:10:15;;;;;;;2.70;1.00;;;18.80;97.20;;;;;;1674719;29;20501;-75
2022/09/15 07:11:07;;;;;;;1.87;0.90;;;18.80;97.20;;;;;;1675201;29;20202;-72
2022/09/15 07:11:57;;;;;;;1.23;1.13;;;18.80;97.20;;;;;;1674836;29;20470;-72
2022/09/15 07:12:49;;;;;;;1.10;1.00;;;18.80;97.20;;;;;;1674829;29;20305;-72
2022/09/15 07:13:40;;;;;;;2.42;1.73;;;18.80;97.20;;;;;;1675026;29;20201;-72
2022/09/15 07:14:32;;;;;;;1.45;1.05;;;18.80;97.20;;;;;;1675206;29;20209;-73
2022/09/15 07:15:24;;;;;;;2.10;1.00;;;18.80;97.20;;;;;;1675156;29;20225;-72
2022/09/15 07:16:17;;;;;;;1.73;1.08;;;18.80;97.20;;;;;;1674832;29;20201;-72
2022/09/15 07:17:08;;;;;;;1.90;0.90;;;18.80;97.20;;;;;;1675230;29;20269;-71
2022/09/15 07:18:00;;;;;;;1.27;1.10;;;18.80;97.20;;;;;;1675156;29;20202;-73
2022/09/15 07:18:54;;;;;;;1.25;0.90;;;18.80;97.20;;;;;;1675133;29;20232;-74
2022/09/15 07:19:46;;;;;;;2.30;1.40;;;18.80;97.20;;;;;;1675101;29;20202;-72
2022/09/15 07:20:39;;;;;;;1.00;0.90;;;18.80;97.20;;;;;;1674987;29;20237;-72
2022/09/15 07:21:31;;;;;;;1.23;1.00;;;18.80;97.20;;;;;;1675223;29;20683;-72
2022/09/15 07:22:23;;;;;;;2.08;0.95;;;18.80;97.20;;;;;;1675106;29;20217;-72
2022/09/15 07:23:15;;;;;;;1.30;1.10;;;18.80;97.20;;;;;;1675086;29;20209;-72
2022/09/15 07:24:06;;;;;;;1.75;1.20;;;18.80;97.20;;;;;;1674835;29;20240;-72
2022/09/15 07:24:57;;;;;;;1.73;1.00;;;18.80;97.20;;;;;;1675082;29;20724;-72
2022/09/15 07:25:48;;;;;;;1.55;1.20;;;18.80;97.20;;;;;;1674900;29;20213;-72
2022/09/15 07:26:40;;;;;;;1.50;1.23;;;18.80;97.20;;;;;;1674958;29;20212;-74
2022/09/15 07:27:31;;;;;;;1.20;1.00;;;18.80;97.20;;;;;;1674823;29;20845;-74
2022/09/15 07:28:23;;;;;;;1.37;0.90;;;18.80;97.20;;;;;;1675089;29;20606;-72
2022/09/15 07:29:14;;;;;;;1.55;0.98;;;18.90;97.20;;;;;;1674996;29;20216;-71
2022/09/15 07:30:07;;;;;;;2.45;1.15;;;18.90;97.20;;;;;;1675030;29;20250;-72
2022/09/15 07:30:59;;;;;;;2.05;1.40;;;18.90;97.20;;;;;;1674959;29;20230;-72
2022/09/15 07:31:50;;;;;;;1.33;1.13;;;18.90;97.20;;;;;;1674957;29;20261;-73
2022/09/15 07:32:41;;;;;;;2.53;1.30;;;18.90;97.20;;;;;;1674987;29;20258;-71
2022/09/15 07:33:33;;;;;;;4.10;1.23;;;18.90;97.20;;;;;;1675048;29;20233;-72
2022/09/15 07:34:24;;;;;;;2.15;1.42;;;18.90;97.20;;;;;;1674981;29;20209;-74
2022/09/15 07:35:15;;;;;;;1.45;1.17;;;18.90;97.20;;;;;;1675036;29;20205;-72
2022/09/15 07:36:10;;;;;;;1.63;1.00;;;18.90;97.20;;;;;;1675056;29;20205;-72
2022/09/15 07:37:01;;;;;;;2.30;0.90;;;18.90;97.20;;;;;;1674954;29;20360;-71
2022/09/15 07:37:53;;;;;;;1.83;0.90;;;19.00;97.20;;;;;;1674391;29;20221;-73
2022/09/15 07:38:45;;;;;;;1.15;0.95;;;19.00;97.20;;;;;;1668471;29;20209;-74
2022/09/15 07:39:37;;;;;;;1.30;1.05;;;19.00;97.20;;;;;;1668571;29;20206;-72
2022/09/15 07:40:28;;;;;;;2.55;1.48;;;19.00;97.20;;;;;;1668572;29;20210;-73
2022/09/15 07:41:21;;;;;;;1.80;1.37;;;19.00;97.20;;;;;;1668600;29;20342;-73
2022/09/15 07:42:12;;;;;;;2.15;1.20;;;19.00;97.20;;;;;;1668710;29;20218;-72
2022/09/15 07:43:04;;;;;;;1.30;0.97;;;19.00;97.20;;;;;;1668740;29;20202;-74
2022/09/15 07:43:57;;;;;;;1.10;0.90;;;19.00;97.20;;;;;;1668573;29;20455;-73
2022/09/15 07:44:49;;;;;;;1.95;1.63;;;19.00;97.20;;;;;;1668716;29;20293;-72
2022/09/15 07:45:40;;;;;;;1.20;1.00;;;19.00;97.20;;;;;;1668548;29;20213;-72
2022/09/15 07:46:32;;;;;;;3.73;1.10;;;19.00;97.20;;;;;;1668578;29;20212;-72
2022/09/15 07:47:23;;;;;;;2.72;1.20;;;19.00;97.20;;;;;;1668251;29;20214;-72
2022/09/15 07:48:15;;;;;;;1.63;1.17;;;19.00;97.20;;;;;;1668647;29;20214;-73
2022/09/15 07:49:07;;;;;;;1.30;1.13;;;19.00;97.20;;;;;;1668509;29;20209;-71
2022/09/15 07:49:58;;;;;;;2.35;1.55;;;19.00;97.20;;;;;;1668607;29;20213;-72
2022/09/15 07:50:49;;;;;;;1.52;1.20;;;19.00;97.20;;;;;;1668491;29;20237;-72
2022/09/15 07:51:42;;;;;;;1.30;0.98;;;19.00;97.20;;;;;;1673021;29;20198;-73
2022/09/15 07:52:33;;;;;;;1.80;1.05;;;19.00;97.20;;;;;;1675062;29;20297;-73
2022/09/15 07:53:27;;;;;;;1.50;1.30;;;19.00;97.20;;;;;;1674951;29;20265;-74
2022/09/15 07:54:17;;;;;;;3.15;1.23;;;19.00;97.20;;;;;;1674946;29;20206;-72
2022/09/15 07:55:10;;;;;;;2.57;1.27;;;19.00;97.20;;;;;;1674928;29;20212;-72
2022/09/15 07:56:01;;;;;;;1.80;1.17;;;19.00;97.20;;;;;;1674825;29;20342;-73
2022/09/15 07:56:52;;;;;;;2.47;1.70;;;19.00;97.20;;;;;;1674891;29;20213;-72
2022/09/15 07:57:43;;;;;;;1.35;1.00;;;19.00;97.20;;;;;;1674606;29;20221;-72
2022/09/15 07:58:35;;;;;;;1.90;1.20;;;19.00;97.20;;;;;;1674946;29;20240;-72
2022/09/15 07:59:26;;;;;;;2.60;1.35;;;19.00;97.20;;;;;;1674882;29;20268;-72
2022/09/15 08:00:18;;;;;;;2.33;1.13;;;19.00;97.20;;;;;;1674821;29;20198;-72
2022/09/15 08:01:10;;;;;;;1.52;1.40;;;19.00;97.20;;;;;;1675000;29;20467;-73
2022/09/15 08:02:02;;;;;;;2.60;1.20;;;19.00;97.20;;;;;;1674861;29;20220;-73
2022/09/15 08:02:52;;;;;;;3.15;1.55;;;19.10;97.20;;;;;;1674907;29;20209;-73
2022/09/15 08:03:47;;;;;;;1.40;1.30;;;19.00;97.20;;;;;;1674918;29;20202;-72
2022/09/15 08:04:38;;;;;;;2.17;1.95;;;19.00;97.20;;;;;;1674933;29;20538;-72
2022/09/15 08:05:31;;;;;;;2.43;1.67;;;19.10;97.20;;;;;;1674664;29;20202;-73
2022/09/15 08:06:25;;;;;;;1.67;1.23;;;19.10;97.20;;;;;;1674928;29;20220;-72
2022/09/15 08:07:17;;;;;;;1.50;1.35;;;19.10;97.20;;;;;;1674605;29;20206;-72
2022/09/15 08:08:09;;;;;;;2.13;1.40;;;19.10;97.20;;;;;;1674913;29;20593;-72
2022/09/15 08:09:01;;;;;;;2.08;1.27;;;19.10;97.20;;;;;;1674795;29;20241;-72
2022/09/15 08:09:52;;;;;;;2.45;1.50;;;19.10;97.20;;;;;;1674924;29;20232;-72
2022/09/15 08:10:44;;;;;;;1.50;1.40;;;19.10;97.20;;;;;;1669307;29;20268;-73
2022/09/15 08:11:35;;;;;;;2.17;1.40;;;19.10;97.20;;;;;;1673759;29;20490;-74
2022/09/15 08:12:29;;;;;;;2.10;1.43;;;19.10;97.20;;;;;;1674472;29;20213;-72
2022/09/15 08:13:20;;;;;;;1.30;1.15;;;19.10;97.20;;;;;;1674951;29;20685;-71
2022/09/15 08:14:14;;;;;;;5.13;1.38;;;19.10;97.20;;;;;;1674811;29;20338;-71
2022/09/15 08:15:06;;;;;;;3.58;1.73;;;19.10;97.20;;;;;;1674361;29;20214;-73
2022/09/15 08:16:05;;;;;;;2.28;1.50;;;19.10;97.20;;;;;;1674383;29;20209;-73
2022/09/15 08:16:56;;;;;;;1.42;1.33;;;19.00;97.20;;;;;;1674848;29;20218;-72
2022/09/15 08:17:48;;;;;;;1.92;1.60;;;19.10;97.20;;;;;;1674539;29;20244;-73
2022/09/15 08:18:40;;;;;;;1.58;1.20;;;19.10;97.20;;;;;;1674514;29;20346;-74
2022/09/15 08:19:34;;;;;;;2.20;1.70;;;19.10;97.20;;;;;;1674655;29;20258;-72
2022/09/15 08:20:25;;;;;;;2.85;2.08;;;19.10;97.20;;;;;;1674564;29;20666;-73
2022/09/15 08:21:19;;;;;;;1.97;1.50;;;19.10;97.20;;;;;;1673148;29;22013;-74
2022/09/15 08:22:10;;;;;;;1.30;1.20;;;19.00;97.20;;;;;;1668817;29;20543;-73
2022/09/15 08:23:03;;;;;;;2.33;1.60;;;19.00;97.20;;;;;;1673297;29;21026;-74
2022/09/15 08:23:56;;;;;;;2.22;1.23;;;19.00;97.20;;;;;;1673370;29;20301;-72
2022/09/15 08:24:47;;;;;;;1.42;1.33;;;19.00;97.20;;;;;;1674669;29;20665;-73
2022/09/15 08:25:38;;;;;;;1.70;1.50;;;19.00;97.20;;;;;;1674760;29;20206;-73
2022/09/15 08:26:30;;;;;;;2.40;1.40;;;19.00;97.20;;;;;;1674834;29;20279;-74
2022/09/15 08:27:21;;;;;;;2.03;1.50;;;19.00;97.20;;;;;;1674110;29;20294;-72
2022/09/15 08:28:13;;;;;;;1.40;1.30;;;18.90;97.20;;;;;;1674643;29;20284;-73
2022/09/15 08:29:04;;;;;;;2.17;1.48;;;19.00;97.20;;;;;;1674353;29;20217;-73
2022/09/15 08:29:56;;;;;;;2.90;1.77;;;19.00;97.20;;;;;;1674865;29;20285;-72
2022/09/15 08:30:46;;;;;;;1.95;1.38;;;19.00;97.20;;;;;;1674406;29;20705;-73
2022/09/15 08:31:38;;;;;;;1.50;1.20;;;19.00;97.20;;;;;;1674722;29;20638;-71
2022/09/15 08:32:29;;;;;;;1.65;1.30;;;19.00;97.20;;;;;;1674838;29;20703;-72
2022/09/15 08:33:22;;;;;;;1.83;1.23;;;19.00;97.20;;;;;;1674387;29;20813;-72
2022/09/15 08:34:15;;;;;;;1.83;1.60;;;19.00;97.20;;;;;;1674521;29;20521;-72
2022/09/15 08:35:07;;;;;;;2.35;1.45;;;19.00;97.20;;;;;;1674373;29;20210;-73
2022/09/15 08:36:02;;;;;;;3.95;1.70;;;19.00;97.20;;;;;;1674772;29;20210;-72
2022/09/15 08:36:53;;;;;;;1.60;1.50;;;19.00;97.20;;;;;;1674740;29;20688;-72
2022/09/15 08:37:45;;;;;;;1.90;1.40;;;19.00;97.20;;;;;;1674500;29;20681;-73
2022/09/15 08:38:39;;;;;;;2.00;1.25;;;19.00;97.20;;;;;;1674713;29;20209;-72
2022/09/15 08:39:30;;;;;;;2.92;1.50;;;19.00;97.20;;;;;;1672063;29;20258;-74
2022/09/15 08:40:27;;;;;;;2.50;1.60;;;19.00;97.20;;;;;;1668006;29;20229;-72
2022/09/15 08:41:25;;;;;;;2.40;1.63;;;19.10;97.20;;;;;;1668095;29;20289;-74
2022/09/15 08:42:18;;;;;;;2.75;1.65;;;19.10;97.20;;;;;;1668333;29;20215;-73
2022/09/15 08:43:17;;;;;;;2.97;1.58;;;19.10;97.20;;;;;;1668408;29;20207;-72
2022/09/15 08:44:20;;;;;;;3.28;1.40;;;19.10;97.20;;;;;;1670736;29;20595;-73
2022/09/15 08:45:20;;;;;;;3.58;1.58;;;19.20;97.20;;;;;;1674783;29;20288;-73
2022/09/15 08:46:16;;;;;;;4.55;1.35;;;19.20;97.20;;;;;;1674570;29;20249;-72
2022/09/15 08:47:14;;;;;;;1.80;1.65;;;19.20;97.20;;;;;;1674428;29;20197;-73
2022/09/15 08:48:07;;;;;;;1.77;1.40;;;19.20;97.20;;;;;;1674517;29;20206;-73
2022/09/15 08:49:05;;;;;;;2.15;1.40;;;19.30;97.20;;;;;;1674587;29;20213;-72
2022/09/15 08:50:01;;;;;;;1.67;1.27;;;19.30;97.20;;;;;;1674704;29;20233;-74
2022/09/15 08:50:57;;;;;;;1.50;1.23;;;19.30;97.20;;;;;;1674026;29;20218;-72
2022/09/15 08:51:50;;;;;;;3.00;1.58;;;19.30;97.20;;;;;;1674551;29;20213;-73
2022/09/15 08:52:48;;;;;;;3.28;1.30;;;19.30;97.20;;;;;;1674492;29;20217;-73
2022/09/15 08:53:45;;;;;;;1.75;1.23;;;19.30;97.20;;;;;;1674414;29;20651;-73
2022/09/15 08:54:38;;;;;;;3.38;1.70;;;19.30;97.20;;;;;;1674446;29;20210;-72
2022/09/15 08:55:36;;;;;;;2.35;1.65;;;19.30;97.20;;;;;;1674694;29;20709;-73
2022/09/15 08:56:29;;;;;;;1.77;1.20;;;19.30;97.20;;;;;;1674752;29;20278;-72
2022/09/15 08:57:23;;;;;;;1.48;1.38;;;19.30;97.20;;;;;;1674382;29;20214;-72
2022/09/15 08:58:18;;;;;;;3.28;2.05;;;19.40;97.20;;;;;;1674520;29;20254;-72
2022/09/15 08:59:13;;;;;;;1.58;1.48;;;19.40;97.20;;;;;;1674382;29;20694;-73
2022/09/15 09:00:07;;;;;;;1.95;1.30;;;19.40;97.20;;;;;;1674293;29;20600;-72
2022/09/15 09:01:04;;;;;;;3.15;1.80;;;19.30;97.20;;;;;;1674486;29;20678;-72
2022/09/15 09:02:26;;;;;;;1.75;1.60;;;19.30;97.20;;;;;;1674662;29;20241;-72
2022/09/15 09:03:32;;;;;;;3.13;1.45;;;19.40;97.20;;;;;;1665376;29;20710;-72
2022/09/15 09:04:51;;;;;;;1.45;1.35;;;19.40;97.20;;;;;;1674672;29;20214;-73
2022/09/15 09:05:51;;;;;;;5.78;1.30;;;19.40;97.20;;;;;;1674377;29;20294;-72
2022/09/15 09:06:51;;;;;;;1.20;1.10;;;19.40;97.20;;;;;;1674266;29;20205;-73
2022/09/15 09:08:01;;;;;;;1.30;1.00;;;19.40;97.20;;;;;;1674322;29;20642;-72
2022/09/15 09:09:05;;;;;;;2.15;1.40;;;19.40;97.20;;;;;;1674593;29;20714;-72
2022/09/15 09:10:01;;;;;;;2.65;1.10;;;19.40;97.20;;;;;;1674628;29;20210;-73
2022/09/15 09:10:55;;;;;;;1.40;1.27;;;19.40;97.20;;;;;;1674557;29;20222;-73
2022/09/15 09:12:11;;;;;;;1.45;1.35;;;19.40;97.20;;;;;;1674156;29;20221;-72
2022/09/15 09:13:16;;;;;;;1.50;1.40;;;19.40;97.20;;;;;;1668896;29;20269;-72
2022/09/15 09:14:19;;;;;;;1.95;1.08;;;19.50;97.20;;;;;;1674587;29;20206;-74
2022/09/15 09:15:31;;;;;;;2.30;1.45;;;19.50;97.20;;;;;;1674703;29;20221;-73
2022/09/15 09:16:39;;;;;;;1.30;1.20;;;19.50;97.20;;;;;;1669648;29;20210;-72
2022/09/15 09:17:44;;;;;;;2.28;1.30;;;19.50;97.20;;;;;;1668170;29;20571;-72
2022/09/15 09:19:03;;;;;;;1.42;1.13;;;19.50;97.20;;;;;;1667987;29;20702;-73
2022/09/15 09:20:09;;;;;;;1.40;1.05;;;19.50;97.20;;;;;;1667923;29;20231;-72
2022/09/15 09:21:09;;;;;;;1.98;1.10;;;19.50;97.20;;;;;;1668669;29;20229;-72
2022/09/15 09:22:04;;;;;;;1.85;1.30;;;19.50;97.20;;;;;;1668379;29;20215;-72
2022/09/15 09:22:59;;;;;;;1.73;1.20;;;19.50;97.20;;;;;;1668336;29;20203;-75
2022/09/15 09:24:00;;;;;;;2.13;1.33;;;19.50;97.20;;;;;;1668240;29;20210;-73
2022/09/15 09:24:54;;;;;;;1.40;1.10;;;19.50;97.20;;;;;;1668523;29;20267;-72
2022/09/15 09:25:45;;;;;;;1.52;1.30;;;19.50;97.20;;;;;;1669081;29;20211;-73
2022/09/15 09:26:38;;;;;;;1.33;1.23;;;19.60;97.20;;;;;;1669207;29;20238;-72
2022/09/15 09:27:32;;;;;;;1.40;1.30;;;19.60;97.20;;;;;;1669186;29;20206;-72
2022/09/15 09:28:30;;;;;;;2.45;1.05;;;19.60;97.20;;;;;;1669346;29;20202;-73
2022/09/15 09:29:28;;;;;;;2.22;1.50;;;19.60;97.20;;;;;;1669410;29;20214;-72
2022/09/15 09:30:22;;;;;;;1.10;1.00;;;19.60;97.20;;;;;;1669356;29;20209;-73
2022/09/15 09:31:17;;;;;;;2.03;1.13;;;19.60;97.20;;;;;;1669077;29;20222;-74
2022/09/15 09:32:16;;;;;;;2.15;1.15;;;19.60;97.20;;;;;;1669113;29;20207;-73
2022/09/15 09:33:19;;;;;;;1.42;1.10;;;19.70;97.20;;;;;;1669267;29;20210;-72
2022/09/15 09:34:19;;;;;;;2.63;1.38;;;19.70;97.20;;;;;;1670437;29;20294;-73
2022/09/15 09:35:18;;;;;;;1.70;1.30;;;19.70;97.20;;;;;;1675777;29;20210;-73
2022/09/15 09:36:11;;;;;;;1.10;1.00;;;19.70;97.20;;;;;;1675923;29;20243;-74
2022/09/15 09:37:10;;;;;;;1.15;1.05;;;19.70;97.20;;;;;;1675626;29;20262;-74
2022/09/15 09:38:01;;;;;;;2.08;1.00;;;19.70;97.20;;;;;;1675379;29;20213;-73